sensor_id;sensor_type;location;lat;lon;timestamp;P1;durP1;ratioP1;P2;durP2;ratioP2
64351;SDS011;50680;52.626;-8.668;2022-10-31T00:01:16;23.60;;;3.38;;
64351;SDS011;50680;52.626;-8.668;2022-10-31T00:03:45;34.17;;;2.78;;
64351;SDS011;50680;52.626;-8.668;2022-10-31T00:06:12;28.77;;;2.90;;
64351;SDS011;50680;52.626;-8.668;2022-10-31T00:08:39;25.52;;;2.47;;
64351;SDS011;50680;52.626;-8.668;2022-10-31T00:11:09;30.15;;;3.28;;
64351;SDS011;50680;52.626;-8.668;2022-10-31T00:13:37;22.90;;;2.50;;
64351;SDS011;50680;52.626;-8.668;2022-10-31T00:16:04;20.75;;;1.95;;
64351;SDS011;50680;52.626;-8.668;2022-10-31T00:18:39;26.35;;;2.42;;
64351;SDS011;50680;52.626;-8.668;2022-10-31T00:21:06;21.50;;;2.05;;
64351;SDS011;50680;52.626;-8.668;2022-10-31T00:23:34;19.13;;;2.35;;
64351;SDS011;50680;52.626;-8.668;2022-10-31T00:26:01;23.52;;;2.42;;
64351;SDS011;50680;52.626;-8.668;2022-10-31T00:28:30;23.38;;;2.78;;
64351;SDS011;50680;52.626;-8.668;2022-10-31T00:33:29;28.42;;;3.95;;
64351;SDS011;50680;52.626;-8.668;2022-10-31T00:35:57;26.83;;;2.65;;
64351;SDS011;50680;52.626;-8.668;2022-10-31T00:38:24;24.65;;;2.50;;
64351;SDS011;50680;52.626;-8.668;2022-10-31T00:40:51;25.95;;;3.45;;
64351;SDS011;50680;52.626;-8.668;2022-10-31T00:43:18;19.48;;;2.22;;
64351;SDS011;50680;52.626;-8.668;2022-10-31T00:45:45;17.50;;;2.28;;
64351;SDS011;50680;52.626;-8.668;2022-10-31T00:48:12;20.48;;;2.22;;
64351;SDS011;50680;52.626;-8.668;2022-10-31T00:50:39;26.65;;;2.97;;
64351;SDS011;50680;52.626;-8.668;2022-10-31T00:53:06;21.80;;;2.10;;
64351;SDS011;50680;52.626;-8.668;2022-10-31T00:55:33;23.15;;;2.00;;
64351;SDS011;50680;52.626;-8.668;2022-10-31T00:58:00;17.35;;;2.17;;
64351;SDS011;50680;52.626;-8.668;2022-10-31T01:00:28;24.60;;;2.13;;
64351;SDS011;50680;52.626;-8.668;2022-10-31T01:02:55;21.45;;;2.33;;
64351;SDS011;50680;52.626;-8.668;2022-10-31T01:05:23;16.67;;;1.90;;
64351;SDS011;50680;52.626;-8.668;2022-10-31T01:07:50;21.20;;;1.98;;
64351;SDS011;50680;52.626;-8.668;2022-10-31T01:10:17;26.00;;;2.70;;
64351;SDS011;50680;52.626;-8.668;2022-10-31T01:12:45;20.60;;;2.33;;
64351;SDS011;50680;52.626;-8.668;2022-10-31T01:15:14;21.80;;;3.00;;
64351;SDS011;50680;52.626;-8.668;2022-10-31T01:17:43;24.70;;;3.08;;
64351;SDS011;50680;52.626;-8.668;2022-10-31T01:20:10;20.17;;;2.83;;
64351;SDS011;50680;52.626;-8.668;2022-10-31T01:22:39;29.15;;;2.58;;
64351;SDS011;50680;52.626;-8.668;2022-10-31T01:25:10;22.30;;;2.33;;
64351;SDS011;50680;52.626;-8.668;2022-10-31T01:27:37;20.35;;;2.00;;
64351;SDS011;50680;52.626;-8.668;2022-10-31T01:30:04;24.90;;;2.20;;
64351;SDS011;50680;52.626;-8.668;2022-10-31T01:32:32;25.30;;;2.53;;
64351;SDS011;50680;52.626;-8.668;2022-10-31T01:34:59;20.17;;;2.50;;
64351;SDS011;50680;52.626;-8.668;2022-10-31T01:37:26;29.20;;;2.47;;
64351;SDS011;50680;52.626;-8.668;2022-10-31T01:39:53;17.33;;;2.13;;
64351;SDS011;50680;52.626;-8.668;2022-10-31T01:42:20;18.88;;;1.92;;
64351;SDS011;50680;52.626;-8.668;2022-10-31T01:47:24;19.90;;;1.98;;
64351;SDS011;50680;52.626;-8.668;2022-10-31T01:49:59;22.33;;;1.92;;
64351;SDS011;50680;52.626;-8.668;2022-10-31T01:55:07;21.70;;;2.40;;
64351;SDS011;50680;52.626;-8.668;2022-10-31T01:57:39;22.23;;;1.73;;
64351;SDS011;50680;52.626;-8.668;2022-10-31T02:00:09;27.55;;;3.03;;
64351;SDS011;50680;52.626;-8.668;2022-10-31T02:02:37;22.23;;;2.00;;
64351;SDS011;50680;52.626;-8.668;2022-10-31T02:05:05;21.40;;;1.65;;
64351;SDS011;50680;52.626;-8.668;2022-10-31T02:07:51;19.48;;;2.20;;
64351;SDS011;50680;52.626;-8.668;2022-10-31T02:10:21;22.83;;;2.58;;
64351;SDS011;50680;52.626;-8.668;2022-10-31T02:12:50;22.17;;;3.03;;
64351;SDS011;50680;52.626;-8.668;2022-10-31T02:15:19;21.25;;;2.30;;
64351;SDS011;50680;52.626;-8.668;2022-10-31T02:17:49;26.58;;;2.25;;
64351;SDS011;50680;52.626;-8.668;2022-10-31T02:20:17;15.02;;;2.08;;
64351;SDS011;50680;52.626;-8.668;2022-10-31T02:31:01;17.92;;;2.22;;
64351;SDS011;50680;52.626;-8.668;2022-10-31T02:33:44;28.95;;;1.98;;
64351;SDS011;50680;52.626;-8.668;2022-10-31T02:36:25;27.45;;;3.05;;
64351;SDS011;50680;52.626;-8.668;2022-10-31T02:39:16;32.03;;;3.13;;
64351;SDS011;50680;52.626;-8.668;2022-10-31T02:44:25;21.50;;;2.10;;
64351;SDS011;50680;52.626;-8.668;2022-10-31T02:47:06;18.33;;;2.10;;
64351;SDS011;50680;52.626;-8.668;2022-10-31T02:52:34;19.50;;;1.75;;
64351;SDS011;50680;52.626;-8.668;2022-10-31T02:55:12;23.05;;;2.28;;
64351;SDS011;50680;52.626;-8.668;2022-10-31T02:58:10;18.48;;;2.05;;
64351;SDS011;50680;52.626;-8.668;2022-10-31T03:00:43;20.25;;;2.55;;
64351;SDS011;50680;52.626;-8.668;2022-10-31T03:06:35;25.90;;;2.70;;
64351;SDS011;50680;52.626;-8.668;2022-10-31T03:11:56;20.67;;;2.10;;
64351;SDS011;50680;52.626;-8.668;2022-10-31T03:14:36;21.27;;;2.35;;
64351;SDS011;50680;52.626;-8.668;2022-10-31T03:17:16;19.48;;;2.30;;
64351;SDS011;50680;52.626;-8.668;2022-10-31T03:19:49;17.65;;;2.58;;
64351;SDS011;50680;52.626;-8.668;2022-10-31T03:22:21;20.65;;;2.00;;
64351;SDS011;50680;52.626;-8.668;2022-10-31T03:24:50;16.77;;;2.85;;
64351;SDS011;50680;52.626;-8.668;2022-10-31T03:27:20;19.17;;;2.30;;
64351;SDS011;50680;52.626;-8.668;2022-10-31T03:29:51;22.75;;;2.05;;
64351;SDS011;50680;52.626;-8.668;2022-10-31T03:32:23;24.52;;;2.58;;
64351;SDS011;50680;52.626;-8.668;2022-10-31T03:34:56;23.30;;;2.70;;
64351;SDS011;50680;52.626;-8.668;2022-10-31T03:37:27;25.03;;;2.97;;
64351;SDS011;50680;52.626;-8.668;2022-10-31T03:39:59;22.08;;;2.05;;
64351;SDS011;50680;52.626;-8.668;2022-10-31T03:42:30;29.98;;;2.25;;
64351;SDS011;50680;52.626;-8.668;2022-10-31T03:45:06;19.25;;;2.10;;
64351;SDS011;50680;52.626;-8.668;2022-10-31T03:47:41;20.05;;;1.88;;
64351;SDS011;50680;52.626;-8.668;2022-10-31T03:50:11;21.15;;;1.95;;
64351;SDS011;50680;52.626;-8.668;2022-10-31T03:52:44;11.77;;;1.98;;
64351;SDS011;50680;52.626;-8.668;2022-10-31T03:55:31;16.92;;;1.85;;
64351;SDS011;50680;52.626;-8.668;2022-10-31T03:58:06;20.10;;;2.47;;
64351;SDS011;50680;52.626;-8.668;2022-10-31T04:00:40;14.85;;;1.80;;
64351;SDS011;50680;52.626;-8.668;2022-10-31T04:03:19;16.10;;;1.80;;
64351;SDS011;50680;52.626;-8.668;2022-10-31T04:05:56;16.38;;;2.30;;
64351;SDS011;50680;52.626;-8.668;2022-10-31T04:08:30;12.77;;;2.20;;
64351;SDS011;50680;52.626;-8.668;2022-10-31T04:11:00;21.48;;;2.17;;
64351;SDS011;50680;52.626;-8.668;2022-10-31T04:13:31;22.90;;;2.42;;
64351;SDS011;50680;52.626;-8.668;2022-10-31T04:16:02;12.90;;;1.85;;
64351;SDS011;50680;52.626;-8.668;2022-10-31T04:18:29;15.85;;;2.53;;
64351;SDS011;50680;52.626;-8.668;2022-10-31T04:21:03;21.55;;;2.47;;
64351;SDS011;50680;52.626;-8.668;2022-10-31T04:23:31;21.45;;;1.98;;
64351;SDS011;50680;52.626;-8.668;2022-10-31T04:25:59;16.77;;;2.10;;
64351;SDS011;50680;52.626;-8.668;2022-10-31T04:28:26;23.25;;;2.63;;
64351;SDS011;50680;52.626;-8.668;2022-10-31T04:30:53;22.17;;;2.22;;
64351;SDS011;50680;52.626;-8.668;2022-10-31T04:33:20;22.10;;;2.42;;
64351;SDS011;50680;52.626;-8.668;2022-10-31T04:35:47;21.85;;;2.53;;
64351;SDS011;50680;52.626;-8.668;2022-10-31T04:38:14;23.80;;;2.58;;
64351;SDS011;50680;52.626;-8.668;2022-10-31T04:40:41;22.95;;;2.70;;
64351;SDS011;50680;52.626;-8.668;2022-10-31T04:43:08;19.50;;;2.15;;
64351;SDS011;50680;52.626;-8.668;2022-10-31T04:45:35;25.38;;;2.90;;
64351;SDS011;50680;52.626;-8.668;2022-10-31T04:48:03;19.13;;;2.25;;
64351;SDS011;50680;52.626;-8.668;2022-10-31T04:50:30;24.33;;;2.75;;
64351;SDS011;50680;52.626;-8.668;2022-10-31T04:52:57;22.75;;;2.10;;
64351;SDS011;50680;52.626;-8.668;2022-10-31T04:55:24;24.88;;;2.70;;
64351;SDS011;50680;52.626;-8.668;2022-10-31T04:57:51;20.52;;;2.47;;
64351;SDS011;50680;52.626;-8.668;2022-10-31T05:00:19;25.83;;;2.15;;
64351;SDS011;50680;52.626;-8.668;2022-10-31T05:02:51;28.95;;;2.83;;
64351;SDS011;50680;52.626;-8.668;2022-10-31T05:05:22;16.80;;;2.20;;
64351;SDS011;50680;52.626;-8.668;2022-10-31T05:07:51;19.45;;;3.10;;
64351;SDS011;50680;52.626;-8.668;2022-10-31T05:10:22;20.42;;;2.17;;
64351;SDS011;50680;52.626;-8.668;2022-10-31T05:12:51;18.58;;;2.35;;
64351;SDS011;50680;52.626;-8.668;2022-10-31T05:15:21;24.25;;;2.90;;
64351;SDS011;50680;52.626;-8.668;2022-10-31T05:17:49;23.88;;;2.10;;
64351;SDS011;50680;52.626;-8.668;2022-10-31T05:20:17;23.05;;;2.33;;
64351;SDS011;50680;52.626;-8.668;2022-10-31T05:22:47;20.25;;;1.95;;
64351;SDS011;50680;52.626;-8.668;2022-10-31T05:25:16;16.10;;;1.50;;
64351;SDS011;50680;52.626;-8.668;2022-10-31T05:27:45;14.00;;;1.50;;
64351;SDS011;50680;52.626;-8.668;2022-10-31T05:30:14;13.48;;;1.90;;
64351;SDS011;50680;52.626;-8.668;2022-10-31T05:32:44;16.27;;;2.03;;
64351;SDS011;50680;52.626;-8.668;2022-10-31T05:35:13;13.15;;;1.48;;
64351;SDS011;50680;52.626;-8.668;2022-10-31T05:37:42;13.73;;;1.85;;
64351;SDS011;50680;52.626;-8.668;2022-10-31T05:40:10;17.90;;;1.70;;
64351;SDS011;50680;52.626;-8.668;2022-10-31T05:42:39;21.35;;;2.97;;
64351;SDS011;50680;52.626;-8.668;2022-10-31T05:45:14;19.38;;;2.38;;
64351;SDS011;50680;52.626;-8.668;2022-10-31T05:47:42;16.85;;;1.98;;
64351;SDS011;50680;52.626;-8.668;2022-10-31T05:50:16;19.40;;;1.80;;
64351;SDS011;50680;52.626;-8.668;2022-10-31T05:52:43;18.35;;;2.10;;
64351;SDS011;50680;52.626;-8.668;2022-10-31T05:55:10;18.52;;;2.03;;
64351;SDS011;50680;52.626;-8.668;2022-10-31T05:57:36;20.10;;;2.38;;
64351;SDS011;50680;52.626;-8.668;2022-10-31T06:00:04;17.17;;;1.80;;
64351;SDS011;50680;52.626;-8.668;2022-10-31T06:02:31;21.45;;;1.70;;
64351;SDS011;50680;52.626;-8.668;2022-10-31T06:05:01;20.00;;;2.10;;
64351;SDS011;50680;52.626;-8.668;2022-10-31T06:07:32;18.52;;;1.85;;
64351;SDS011;50680;52.626;-8.668;2022-10-31T06:10:01;27.17;;;3.15;;
64351;SDS011;50680;52.626;-8.668;2022-10-31T06:12:30;13.27;;;2.35;;
64351;SDS011;50680;52.626;-8.668;2022-10-31T06:14:57;14.15;;;1.98;;
64351;SDS011;50680;52.626;-8.668;2022-10-31T06:17:25;24.55;;;2.45;;
64351;SDS011;50680;52.626;-8.668;2022-10-31T06:19:52;19.63;;;2.28;;
64351;SDS011;50680;52.626;-8.668;2022-10-31T06:22:19;20.23;;;1.88;;
64351;SDS011;50680;52.626;-8.668;2022-10-31T06:24:45;28.67;;;2.60;;
64351;SDS011;50680;52.626;-8.668;2022-10-31T06:27:12;9.45;;;1.10;;
64351;SDS011;50680;52.626;-8.668;2022-10-31T06:29:40;3.97;;;0.40;;
64351;SDS011;50680;52.626;-8.668;2022-10-31T06:32:09;6.00;;;0.35;;
64351;SDS011;50680;52.626;-8.668;2022-10-31T06:34:38;2.30;;;0.20;;
64351;SDS011;50680;52.626;-8.668;2022-10-31T06:37:07;1.35;;;0.10;;
64351;SDS011;50680;52.626;-8.668;2022-10-31T06:39:34;4.82;;;0.30;;
64351;SDS011;50680;52.626;-8.668;2022-10-31T06:42:02;5.10;;;0.30;;
64351;SDS011;50680;52.626;-8.668;2022-10-31T06:44:29;5.97;;;0.60;;
64351;SDS011;50680;52.626;-8.668;2022-10-31T06:46:56;4.68;;;0.30;;
64351;SDS011;50680;52.626;-8.668;2022-10-31T06:49:23;3.80;;;0.30;;
64351;SDS011;50680;52.626;-8.668;2022-10-31T06:51:50;4.65;;;0.32;;
64351;SDS011;50680;52.626;-8.668;2022-10-31T06:54:17;2.88;;;0.30;;
64351;SDS011;50680;52.626;-8.668;2022-10-31T06:56:48;2.60;;;0.22;;
64351;SDS011;50680;52.626;-8.668;2022-10-31T06:59:15;0.80;;;0.08;;
64351;SDS011;50680;52.626;-8.668;2022-10-31T07:01:42;1.05;;;0.20;;
64351;SDS011;50680;52.626;-8.668;2022-10-31T07:04:10;0.50;;;0.17;;
64351;SDS011;50680;52.626;-8.668;2022-10-31T07:06:37;1.50;;;0.20;;
64351;SDS011;50680;52.626;-8.668;2022-10-31T07:09:04;0.30;;;0.10;;
64351;SDS011;50680;52.626;-8.668;2022-10-31T07:11:31;3.75;;;0.35;;
64351;SDS011;50680;52.626;-8.668;2022-10-31T07:13:58;0.45;;;0.10;;
64351;SDS011;50680;52.626;-8.668;2022-10-31T07:16:26;3.65;;;0.28;;
64351;SDS011;50680;52.626;-8.668;2022-10-31T07:18:54;1.70;;;0.25;;
64351;SDS011;50680;52.626;-8.668;2022-10-31T07:21:20;2.75;;;0.30;;
64351;SDS011;50680;52.626;-8.668;2022-10-31T07:23:48;2.38;;;0.20;;
64351;SDS011;50680;52.626;-8.668;2022-10-31T07:26:15;2.45;;;0.40;;
64351;SDS011;50680;52.626;-8.668;2022-10-31T07:28:42;3.42;;;0.30;;
64351;SDS011;50680;52.626;-8.668;2022-10-31T07:31:09;2.17;;;0.65;;
64351;SDS011;50680;52.626;-8.668;2022-10-31T07:33:36;6.88;;;0.50;;
64351;SDS011;50680;52.626;-8.668;2022-10-31T07:36:04;3.40;;;0.40;;
64351;SDS011;50680;52.626;-8.668;2022-10-31T07:38:31;2.58;;;0.50;;
64351;SDS011;50680;52.626;-8.668;2022-10-31T07:40:58;2.25;;;0.50;;
64351;SDS011;50680;52.626;-8.668;2022-10-31T07:43:25;5.57;;;0.90;;
64351;SDS011;50680;52.626;-8.668;2022-10-31T07:45:52;3.85;;;0.40;;
64351;SDS011;50680;52.626;-8.668;2022-10-31T07:48:22;4.70;;;0.40;;
64351;SDS011;50680;52.626;-8.668;2022-10-31T07:50:49;1.75;;;0.20;;
64351;SDS011;50680;52.626;-8.668;2022-10-31T07:53:16;4.45;;;0.38;;
64351;SDS011;50680;52.626;-8.668;2022-10-31T07:55:43;2.08;;;0.20;;
64351;SDS011;50680;52.626;-8.668;2022-10-31T07:58:12;2.22;;;0.30;;
64351;SDS011;50680;52.626;-8.668;2022-10-31T08:00:41;1.95;;;0.22;;
64351;SDS011;50680;52.626;-8.668;2022-10-31T08:03:11;5.07;;;0.50;;
64351;SDS011;50680;52.626;-8.668;2022-10-31T08:05:41;7.05;;;0.47;;
64351;SDS011;50680;52.626;-8.668;2022-10-31T08:08:08;4.18;;;0.20;;
64351;SDS011;50680;52.626;-8.668;2022-10-31T08:10:36;4.55;;;0.22;;
64351;SDS011;50680;52.626;-8.668;2022-10-31T08:13:03;6.90;;;0.45;;
64351;SDS011;50680;52.626;-8.668;2022-10-31T08:15:32;6.43;;;0.30;;
64351;SDS011;50680;52.626;-8.668;2022-10-31T08:18:03;6.28;;;0.45;;
64351;SDS011;50680;52.626;-8.668;2022-10-31T08:20:31;5.55;;;0.40;;
64351;SDS011;50680;52.626;-8.668;2022-10-31T08:23:02;4.32;;;0.30;;
64351;SDS011;50680;52.626;-8.668;2022-10-31T08:25:31;8.63;;;0.52;;
64351;SDS011;50680;52.626;-8.668;2022-10-31T08:28:04;5.72;;;0.60;;
64351;SDS011;50680;52.626;-8.668;2022-10-31T08:30:32;4.53;;;0.45;;
64351;SDS011;50680;52.626;-8.668;2022-10-31T08:35:39;6.28;;;0.38;;
64351;SDS011;50680;52.626;-8.668;2022-10-31T08:38:07;3.58;;;0.40;;
64351;SDS011;50680;52.626;-8.668;2022-10-31T08:40:36;7.90;;;0.40;;
64351;SDS011;50680;52.626;-8.668;2022-10-31T08:45:32;3.08;;;0.40;;
64351;SDS011;50680;52.626;-8.668;2022-10-31T08:48:01;4.85;;;0.52;;
64351;SDS011;50680;52.626;-8.668;2022-10-31T08:50:34;5.18;;;0.60;;
64351;SDS011;50680;52.626;-8.668;2022-10-31T08:53:06;7.43;;;0.50;;
64351;SDS011;50680;52.626;-8.668;2022-10-31T08:55:36;15.35;;;2.90;;
64351;SDS011;50680;52.626;-8.668;2022-10-31T08:58:05;3.55;;;0.50;;
64351;SDS011;50680;52.626;-8.668;2022-10-31T09:00:34;18.50;;;0.80;;
64351;SDS011;50680;52.626;-8.668;2022-10-31T09:03:06;4.20;;;0.60;;
64351;SDS011;50680;52.626;-8.668;2022-10-31T09:05:36;9.43;;;0.70;;
64351;SDS011;50680;52.626;-8.668;2022-10-31T09:08:04;8.65;;;0.60;;
64351;SDS011;50680;52.626;-8.668;2022-10-31T09:10:37;5.05;;;0.50;;
64351;SDS011;50680;52.626;-8.668;2022-10-31T09:13:05;2.72;;;0.45;;
64351;SDS011;50680;52.626;-8.668;2022-10-31T09:15:35;6.00;;;0.50;;
64351;SDS011;50680;52.626;-8.668;2022-10-31T09:18:05;6.85;;;0.50;;
64351;SDS011;50680;52.626;-8.668;2022-10-31T09:20:33;5.28;;;0.55;;
64351;SDS011;50680;52.626;-8.668;2022-10-31T09:25:33;5.13;;;0.85;;
64351;SDS011;50680;52.626;-8.668;2022-10-31T09:28:01;5.07;;;0.50;;
64351;SDS011;50680;52.626;-8.668;2022-10-31T09:30:30;5.05;;;0.50;;
64351;SDS011;50680;52.626;-8.668;2022-10-31T09:33:06;8.82;;;0.63;;
64351;SDS011;50680;52.626;-8.668;2022-10-31T09:35:36;8.57;;;0.50;;
64351;SDS011;50680;52.626;-8.668;2022-10-31T09:38:05;5.45;;;0.52;;
64351;SDS011;50680;52.626;-8.668;2022-10-31T09:40:38;6.50;;;0.50;;
64351;SDS011;50680;52.626;-8.668;2022-10-31T09:51:45;31.25;;;9.98;;
64351;SDS011;50680;52.626;-8.668;2022-10-31T09:54:19;8.57;;;1.00;;
64351;SDS011;50680;52.626;-8.668;2022-10-31T09:56:53;5.25;;;1.15;;
64351;SDS011;50680;52.626;-8.668;2022-10-31T09:59:33;3.42;;;0.70;;
64351;SDS011;50680;52.626;-8.668;2022-10-31T10:13:28;4.93;;;0.68;;
64351;SDS011;50680;52.626;-8.668;2022-10-31T10:16:03;6.00;;;0.73;;
64351;SDS011;50680;52.626;-8.668;2022-10-31T10:22:06;9.10;;;0.95;;
64351;SDS011;50680;52.626;-8.668;2022-10-31T10:30:26;4.90;;;0.68;;
64351;SDS011;50680;52.626;-8.668;2022-10-31T10:33:03;5.40;;;0.80;;
64351;SDS011;50680;52.626;-8.668;2022-10-31T10:35:42;7.80;;;0.73;;
64351;SDS011;50680;52.626;-8.668;2022-10-31T10:40:52;6.68;;;0.50;;
64351;SDS011;50680;52.626;-8.668;2022-10-31T10:43:30;9.35;;;0.75;;
64351;SDS011;50680;52.626;-8.668;2022-10-31T10:49:30;7.75;;;0.50;;
64351;SDS011;50680;52.626;-8.668;2022-10-31T10:52:23;2.58;;;0.52;;
64351;SDS011;50680;52.626;-8.668;2022-10-31T10:55:34;7.78;;;0.50;;
64351;SDS011;50680;52.626;-8.668;2022-10-31T10:58:08;9.82;;;1.08;;
64351;SDS011;50680;52.626;-8.668;2022-10-31T11:00:40;4.82;;;0.60;;
64351;SDS011;50680;52.626;-8.668;2022-10-31T11:03:09;8.88;;;0.50;;
64351;SDS011;50680;52.626;-8.668;2022-10-31T11:05:41;4.97;;;0.40;;
64351;SDS011;50680;52.626;-8.668;2022-10-31T11:08:27;5.65;;;0.70;;
64351;SDS011;50680;52.626;-8.668;2022-10-31T11:11:01;6.75;;;0.93;;
64351;SDS011;50680;52.626;-8.668;2022-10-31T11:13:31;7.38;;;0.68;;
64351;SDS011;50680;52.626;-8.668;2022-10-31T11:16:02;5.60;;;0.90;;
64351;SDS011;50680;52.626;-8.668;2022-10-31T11:18:45;12.23;;;0.80;;
64351;SDS011;50680;52.626;-8.668;2022-10-31T11:21:28;2.85;;;0.30;;
64351;SDS011;50680;52.626;-8.668;2022-10-31T11:24:17;3.33;;;0.57;;
64351;SDS011;50680;52.626;-8.668;2022-10-31T11:26:46;3.47;;;0.40;;
64351;SDS011;50680;52.626;-8.668;2022-10-31T11:29:22;6.32;;;0.50;;
64351;SDS011;50680;52.626;-8.668;2022-10-31T11:31:52;5.07;;;0.52;;
64351;SDS011;50680;52.626;-8.668;2022-10-31T11:37:01;3.45;;;0.60;;
64351;SDS011;50680;52.626;-8.668;2022-10-31T11:39:39;3.65;;;0.60;;
64351;SDS011;50680;52.626;-8.668;2022-10-31T11:42:08;3.00;;;0.55;;
64351;SDS011;50680;52.626;-8.668;2022-10-31T11:44:35;3.88;;;0.30;;
64351;SDS011;50680;52.626;-8.668;2022-10-31T11:47:03;4.20;;;0.40;;
64351;SDS011;50680;52.626;-8.668;2022-10-31T11:49:45;5.45;;;0.60;;
64351;SDS011;50680;52.626;-8.668;2022-10-31T11:52:27;1.45;;;0.50;;
64351;SDS011;50680;52.626;-8.668;2022-10-31T11:57:46;4.25;;;0.60;;
64351;SDS011;50680;52.626;-8.668;2022-10-31T12:00:30;2.75;;;0.40;;
64351;SDS011;50680;52.626;-8.668;2022-10-31T12:03:10;1.55;;;0.40;;
64351;SDS011;50680;52.626;-8.668;2022-10-31T12:05:44;2.55;;;0.50;;
64351;SDS011;50680;52.626;-8.668;2022-10-31T12:08:13;3.85;;;0.63;;
64351;SDS011;50680;52.626;-8.668;2022-10-31T12:10:51;1.98;;;0.40;;
64351;SDS011;50680;52.626;-8.668;2022-10-31T12:22:32;6.15;;;0.70;;
64351;SDS011;50680;52.626;-8.668;2022-10-31T12:39:25;5.43;;;0.40;;
64351;SDS011;50680;52.626;-8.668;2022-10-31T12:42:09;4.32;;;0.47;;
64351;SDS011;50680;52.626;-8.668;2022-10-31T12:50:28;13.25;;;0.60;;
64351;SDS011;50680;52.626;-8.668;2022-10-31T12:58:33;1.83;;;0.47;;
64351;SDS011;50680;52.626;-8.668;2022-10-31T13:04:03;3.40;;;0.45;;
64351;SDS011;50680;52.626;-8.668;2022-10-31T13:06:40;2.33;;;0.47;;
64351;SDS011;50680;52.626;-8.668;2022-10-31T13:09:17;4.07;;;0.60;;
64351;SDS011;50680;52.626;-8.668;2022-10-31T13:11:53;4.05;;;1.10;;
64351;SDS011;50680;52.626;-8.668;2022-10-31T13:17:26;2.50;;;0.40;;
64351;SDS011;50680;52.626;-8.668;2022-10-31T13:20:11;2.83;;;0.50;;
64351;SDS011;50680;52.626;-8.668;2022-10-31T13:22:45;50.78;;;19.17;;
64351;SDS011;50680;52.626;-8.668;2022-10-31T13:25:25;71.85;;;35.53;;
64351;SDS011;50680;52.626;-8.668;2022-10-31T13:28:02;73.88;;;40.33;;
64351;SDS011;50680;52.626;-8.668;2022-10-31T13:30:37;8.07;;;1.25;;
64351;SDS011;50680;52.626;-8.668;2022-10-31T13:38:55;7.57;;;1.42;;
64351;SDS011;50680;52.626;-8.668;2022-10-31T13:41:34;5.07;;;1.08;;
64351;SDS011;50680;52.626;-8.668;2022-10-31T13:46:41;5.28;;;1.10;;
64351;SDS011;50680;52.626;-8.668;2022-10-31T13:49:26;4.95;;;1.15;;
64351;SDS011;50680;52.626;-8.668;2022-10-31T13:54:45;9.73;;;2.95;;
64351;SDS011;50680;52.626;-8.668;2022-10-31T13:57:22;9.77;;;2.78;;
64351;SDS011;50680;52.626;-8.668;2022-10-31T14:00:05;8.85;;;2.00;;
64351;SDS011;50680;52.626;-8.668;2022-10-31T14:02:51;8.57;;;1.55;;
64351;SDS011;50680;52.626;-8.668;2022-10-31T14:07:53;2.67;;;0.77;;
64351;SDS011;50680;52.626;-8.668;2022-10-31T14:10:29;5.28;;;1.50;;
64351;SDS011;50680;52.626;-8.668;2022-10-31T14:13:13;5.15;;;1.40;;
64351;SDS011;50680;52.626;-8.668;2022-10-31T14:16:03;5.63;;;1.83;;
64351;SDS011;50680;52.626;-8.668;2022-10-31T14:18:34;4.50;;;1.63;;
64351;SDS011;50680;52.626;-8.668;2022-10-31T14:23:53;5.03;;;2.22;;
64351;SDS011;50680;52.626;-8.668;2022-10-31T14:28:59;5.25;;;2.45;;
64351;SDS011;50680;52.626;-8.668;2022-10-31T14:39:44;45.70;;;20.63;;
64351;SDS011;50680;52.626;-8.668;2022-10-31T14:42:25;43.42;;;16.83;;
64351;SDS011;50680;52.626;-8.668;2022-10-31T14:45:12;58.83;;;22.52;;
64351;SDS011;50680;52.626;-8.668;2022-10-31T14:55:57;14.40;;;7.13;;
64351;SDS011;50680;52.626;-8.668;2022-10-31T14:58:41;16.13;;;4.80;;
64351;SDS011;50680;52.626;-8.668;2022-10-31T15:01:18;7.82;;;2.75;;
64351;SDS011;50680;52.626;-8.668;2022-10-31T15:03:49;7.15;;;3.17;;
64351;SDS011;50680;52.626;-8.668;2022-10-31T15:06:47;6.28;;;2.40;;
64351;SDS011;50680;52.626;-8.668;2022-10-31T15:09:29;9.65;;;3.78;;
64351;SDS011;50680;52.626;-8.668;2022-10-31T15:11:59;16.88;;;6.10;;
64351;SDS011;50680;52.626;-8.668;2022-10-31T15:14:45;27.98;;;8.25;;
64351;SDS011;50680;52.626;-8.668;2022-10-31T15:17:12;30.17;;;8.27;;
64351;SDS011;50680;52.626;-8.668;2022-10-31T15:19:39;43.22;;;10.25;;
64351;SDS011;50680;52.626;-8.668;2022-10-31T15:22:07;28.88;;;9.68;;
64351;SDS011;50680;52.626;-8.668;2022-10-31T15:24:44;25.17;;;8.23;;
64351;SDS011;50680;52.626;-8.668;2022-10-31T15:27:12;24.70;;;6.70;;
64351;SDS011;50680;52.626;-8.668;2022-10-31T15:29:48;14.18;;;4.05;;
64351;SDS011;50680;52.626;-8.668;2022-10-31T15:34:53;7.25;;;1.98;;
64351;SDS011;50680;52.626;-8.668;2022-10-31T15:37:22;5.85;;;2.33;;
64351;SDS011;50680;52.626;-8.668;2022-10-31T15:39:51;5.63;;;2.25;;
64351;SDS011;50680;52.626;-8.668;2022-10-31T15:42:29;13.90;;;5.50;;
64351;SDS011;50680;52.626;-8.668;2022-10-31T15:47:38;14.15;;;4.63;;
64351;SDS011;50680;52.626;-8.668;2022-10-31T15:52:58;36.03;;;15.88;;
64351;SDS011;50680;52.626;-8.668;2022-10-31T15:55:29;30.20;;;11.98;;
64351;SDS011;50680;52.626;-8.668;2022-10-31T15:58:03;20.27;;;6.75;;
64351;SDS011;50680;52.626;-8.668;2022-10-31T16:00:39;25.13;;;5.03;;
64351;SDS011;50680;52.626;-8.668;2022-10-31T16:05:43;11.77;;;3.10;;
64351;SDS011;50680;52.626;-8.668;2022-10-31T16:10:53;20.80;;;8.27;;
64351;SDS011;50680;52.626;-8.668;2022-10-31T16:13:23;29.73;;;9.98;;
64351;SDS011;50680;52.626;-8.668;2022-10-31T16:15:56;30.52;;;13.00;;
64351;SDS011;50680;52.626;-8.668;2022-10-31T16:18:46;14.75;;;7.00;;
64351;SDS011;50680;52.626;-8.668;2022-10-31T16:21:14;13.65;;;5.82;;
64351;SDS011;50680;52.626;-8.668;2022-10-31T16:23:53;12.43;;;7.35;;
64351;SDS011;50680;52.626;-8.668;2022-10-31T16:26:23;15.52;;;9.15;;
64351;SDS011;50680;52.626;-8.668;2022-10-31T16:28:52;17.25;;;10.60;;
64351;SDS011;50680;52.626;-8.668;2022-10-31T16:31:35;17.52;;;11.52;;
64351;SDS011;50680;52.626;-8.668;2022-10-31T16:34:25;21.73;;;14.13;;
64351;SDS011;50680;52.626;-8.668;2022-10-31T16:36:52;18.35;;;11.75;;
64351;SDS011;50680;52.626;-8.668;2022-10-31T16:39:19;19.75;;;12.45;;
64351;SDS011;50680;52.626;-8.668;2022-10-31T16:41:48;23.35;;;12.70;;
64351;SDS011;50680;52.626;-8.668;2022-10-31T16:44:22;20.45;;;12.57;;
64351;SDS011;50680;52.626;-8.668;2022-10-31T16:49:41;19.85;;;9.73;;
64351;SDS011;50680;52.626;-8.668;2022-10-31T16:52:09;14.50;;;9.32;;
64351;SDS011;50680;52.626;-8.668;2022-10-31T16:54:36;17.67;;;9.70;;
64351;SDS011;50680;52.626;-8.668;2022-10-31T16:57:03;15.00;;;9.13;;
64351;SDS011;50680;52.626;-8.668;2022-10-31T16:59:32;14.45;;;8.35;;
64351;SDS011;50680;52.626;-8.668;2022-10-31T17:02:00;21.55;;;11.43;;
64351;SDS011;50680;52.626;-8.668;2022-10-31T17:04:30;21.75;;;12.63;;
64351;SDS011;50680;52.626;-8.668;2022-10-31T17:06:57;17.85;;;10.50;;
64351;SDS011;50680;52.626;-8.668;2022-10-31T17:09:24;21.85;;;9.57;;
64351;SDS011;50680;52.626;-8.668;2022-10-31T17:11:52;18.58;;;10.70;;
64351;SDS011;50680;52.626;-8.668;2022-10-31T17:14:19;15.05;;;9.15;;
64351;SDS011;50680;52.626;-8.668;2022-10-31T17:16:47;15.88;;;8.68;;
64351;SDS011;50680;52.626;-8.668;2022-10-31T17:19:14;13.85;;;8.75;;
64351;SDS011;50680;52.626;-8.668;2022-10-31T17:21:41;29.23;;;16.05;;
64351;SDS011;50680;52.626;-8.668;2022-10-31T17:24:12;55.88;;;33.05;;
64351;SDS011;50680;52.626;-8.668;2022-10-31T17:26:40;84.93;;;44.85;;
64351;SDS011;50680;52.626;-8.668;2022-10-31T17:29:07;72.50;;;33.45;;
64351;SDS011;50680;52.626;-8.668;2022-10-31T17:31:35;81.47;;;37.33;;
64351;SDS011;50680;52.626;-8.668;2022-10-31T17:34:04;95.13;;;43.25;;
64351;SDS011;50680;52.626;-8.668;2022-10-31T17:36:32;47.55;;;23.08;;
64351;SDS011;50680;52.626;-8.668;2022-10-31T17:39:00;42.28;;;21.50;;